CW4848 Ferrals les Corbiares FR current weather conditions

sailwx.info

Wind from 232 at 6 knots gusting 15

Air temperature 10.0° C
Dewpoint 8.1° C

Last reported at 2019-Dec-07 08:58 UTC.
Time now 2019-Dec-07 11:10 UTC

Location: N 43°09' E 002°44'.
View on Google Maps.

See reports from other nearby stations

  
Tides and Currents Weather Stations Pressure Air Temp Water Temp Dewpoint Dewpoint Depression Visibility Wind Speed Wind Dir Waves Ship Positions
date/time (UTC)wind fromknots sea level pressurealtimeterstation pressurevisibilityair tempwater tempwave heightnotes
2019-Dec-07 08:58 232 6 gusting 15 10.0
2019-Dec-07 08:28 233 6 gusting 11 9.4
2019-Dec-07 07:58 254 5 gusting 9 8.9
2019-Dec-07 07:28 241 2 gusting 6 7.8
2019-Dec-07 06:58 171 3 gusting 4 6.1
2019-Dec-07 06:28 360 1 gusting 2 5.6
2019-Dec-07 05:58 279 5.6
2019-Dec-07 04:58 150 0 gusting 1 4.4
2019-Dec-07 04:28 157 1 gusting 3 5.0
2019-Dec-07 03:58 176 0 gusting 1 4.4
2019-Dec-07 03:28 227 2 gusting 3 4.4
2019-Dec-07 02:58 150 0 gusting 1 6.1
2019-Dec-07 02:28 111 1 gusting 1 5.6
2019-Dec-07 01:28 167 5.6
2019-Dec-07 00:58 227 0 gusting 2 4.4
2019-Dec-07 00:28 170 3 gusting 4 6.1
2019-Dec-06 23:58 156 1 gusting 3 5.6
2019-Dec-06 22:58 167 1 gusting 4 6.1
2019-Dec-06 22:28 167 0 gusting 4 6.7
2019-Dec-06 21:28 172 1 gusting 3 6.7
2019-Dec-06 20:58 174 1 gusting 3 7.2
2019-Dec-06 20:28 171 1 gusting 5 7.2
2019-Dec-06 19:58 211 2 gusting 6 7.8
2019-Dec-06 19:28 189 2 gusting 4 7.8
2019-Dec-06 18:58 171 2 gusting 5 8.3
2019-Dec-06 18:28 182 5 gusting 6 8.9
2019-Dec-06 17:58 171 5 gusting 5 8.9
2019-Dec-06 17:28 015 3 gusting 4 9.4
2019-Dec-06 16:58 015 0 gusting 1 10.6
2019-Dec-06 15:58 015 13.3
2019-Dec-06 15:28 014 0 gusting 2 14.4
2019-Dec-06 14:58 014 1 gusting 4 14.4
2019-Dec-06 13:28 051 2 gusting 4 14.4
2019-Dec-06 12:28 050 0 gusting 4 13.9
2019-Dec-06 11:58 051 13.3
2019-Dec-06 11:28 051 0 gusting 1 12.2
2019-Dec-06 10:58 051 1 gusting 2 11.1
2019-Dec-06 10:28 051 0 gusting 2 10.6
2019-Dec-06 09:58 051 9.4
2019-Dec-06 09:28 157 7.8
2019-Dec-06 07:58 131 1 gusting 3 4.4
2019-Dec-06 07:28 171 5.0
2019-Dec-06 06:58 171 2 gusting 4 5.0
2019-Dec-06 05:58 214 6.1
2019-Dec-06 04:58 157 2 gusting 4 6.7
2019-Dec-06 03:58 157 1 gusting 3 6.7
2019-Dec-06 03:28 157 2 gusting 3 6.7
2019-Dec-06 02:58 156 7.2
2019-Dec-06 02:28 157 7.2
2019-Dec-06 01:28 174 0 gusting 1 7.2
2019-Dec-06 00:58 171 2 gusting 3 7.2
2019-Dec-05 23:58 142 8.3
2019-Dec-05 22:28 326 9.4
2019-Dec-05 21:58 310 9.4
2019-Dec-05 21:28 052 1 gusting 2 9.4
2019-Dec-05 20:58 156 0 gusting 3 9.4
2019-Dec-05 18:58 157 8.9
2019-Dec-05 18:28 157 8.9
2019-Dec-05 17:58 156 3 gusting 4 10.0
2019-Dec-05 17:28 173 10.6
2019-Dec-05 16:28 171 10.6
2019-Dec-05 15:58 172 11.1
2019-Dec-05 14:58 207 1 gusting 2 11.7
2019-Dec-05 14:28 245 11.7
2019-Dec-05 13:58 245 11.7
2019-Dec-05 13:28 321 11.7
2019-Dec-05 12:58 321 0 gusting 1 11.7
2019-Dec-05 12:28 277 11.1
2019-Dec-05 11:58 279 0 gusting 5 11.1
2019-Dec-05 11:28 161 10.6